sensor_id;sensor_type;location;lat;lon;timestamp;temperature;humidity
21744;DHT22;11034;48.556;9.342;2023-03-25T05:47:33;6.40;99.90
21744;DHT22;11034;48.556;9.342;2023-03-25T05:50:01;6.40;99.90
21744;DHT22;11034;48.556;9.342;2023-03-25T05:52:29;6.50;99.90
21744;DHT22;11034;48.556;9.342;2023-03-25T05:54:57;6.50;99.90
21744;DHT22;11034;48.556;9.342;2023-03-25T05:57:25;6.60;99.90
21744;DHT22;11034;48.556;9.342;2023-03-25T05:59:53;6.70;99.90
21744;DHT22;11034;48.556;9.342;2023-03-25T06:02:23;6.80;99.90
21744;DHT22;11034;48.556;9.342;2023-03-25T06:04:52;6.80;99.90
21744;DHT22;11034;48.556;9.342;2023-03-25T06:07:21;7.00;99.90
21744;DHT22;11034;48.556;9.342;2023-03-25T06:09:51;7.00;99.90
21744;DHT22;11034;48.556;9.342;2023-03-25T06:12:22;7.10;99.90
21744;DHT22;11034;48.556;9.342;2023-03-25T06:14:53;7.10;99.90
21744;DHT22;11034;48.556;9.342;2023-03-25T06:17:22;7.20;99.90
21744;DHT22;11034;48.556;9.342;2023-03-25T06:19:51;7.20;99.90
21744;DHT22;11034;48.556;9.342;2023-03-25T06:22:20;7.20;99.90
21744;DHT22;11034;48.556;9.342;2023-03-25T06:24:48;7.30;99.90
21744;DHT22;11034;48.556;9.342;2023-03-25T06:27:19;7.30;99.90
21744;DHT22;11034;48.556;9.342;2023-03-25T06:29:47;7.30;99.90
21744;DHT22;11034;48.556;9.342;2023-03-25T06:32:15;7.30;99.90
21744;DHT22;11034;48.556;9.342;2023-03-25T06:34:43;7.30;99.90
21744;DHT22;11034;48.556;9.342;2023-03-25T06:37:12;7.30;99.90
21744;DHT22;11034;48.556;9.342;2023-03-25T06:39:41;7.30;99.90
21744;DHT22;11034;48.556;9.342;2023-03-25T06:42:15;7.30;99.90
21744;DHT22;11034;48.556;9.342;2023-03-25T06:44:43;7.50;99.90
21744;DHT22;11034;48.556;9.342;2023-03-25T06:47:11;7.60;99.90
21744;DHT22;11034;48.556;9.342;2023-03-25T06:49:39;7.70;99.90
21744;DHT22;11034;48.556;9.342;2023-03-25T06:52:07;7.60;99.90
21744;DHT22;11034;48.556;9.342;2023-03-25T06:54:36;7.50;99.90
21744;DHT22;11034;48.556;9.342;2023-03-25T06:57:05;8.20;99.90
21744;DHT22;11034;48.556;9.342;2023-03-25T06:59:33;8.80;99.90
21744;DHT22;11034;48.556;9.342;2023-03-25T07:02:01;8.50;99.90
21744;DHT22;11034;48.556;9.342;2023-03-25T07:04:29;8.50;99.90
21744;DHT22;11034;48.556;9.342;2023-03-25T07:06:57;8.40;99.90
21744;DHT22;11034;48.556;9.342;2023-03-25T07:09:25;8.30;99.90
21744;DHT22;11034;48.556;9.342;2023-03-25T07:11:54;8.20;99.90
21744;DHT22;11034;48.556;9.342;2023-03-25T07:14:22;8.20;99.90
21744;DHT22;11034;48.556;9.342;2023-03-25T07:16:50;8.10;99.90
21744;DHT22;11034;48.556;9.342;2023-03-25T07:19:20;8.10;99.90
21744;DHT22;11034;48.556;9.342;2023-03-25T07:21:48;8.20;99.90
21744;DHT22;11034;48.556;9.342;2023-03-25T07:24:16;8.30;99.90
21744;DHT22;11034;48.556;9.342;2023-03-25T07:26:44;8.20;99.90
21744;DHT22;11034;48.556;9.342;2023-03-25T07:29:13;8.00;99.90
21744;DHT22;11034;48.556;9.342;2023-03-25T07:31:41;7.90;99.90
21744;DHT22;11034;48.556;9.342;2023-03-25T07:34:10;7.90;99.90
21744;DHT22;11034;48.556;9.342;2023-03-25T07:36:38;8.10;99.90
21744;DHT22;11034;48.556;9.342;2023-03-25T07:39:05;8.30;99.90
21744;DHT22;11034;48.556;9.342;2023-03-25T07:41:33;8.40;99.90
21744;DHT22;11034;48.556;9.342;2023-03-25T07:44:01;8.80;99.90
21744;DHT22;11034;48.556;9.342;2023-03-25T15:02:32;11.10;99.90
21744;DHT22;11034;48.556;9.342;2023-03-25T15:05:10;11.20;99.90
21744;DHT22;11034;48.556;9.342;2023-03-25T15:07:43;11.30;99.90
21744;DHT22;11034;48.556;9.342;2023-03-25T15:10:24;11.30;99.90
21744;DHT22;11034;48.556;9.342;2023-03-25T15:12:59;11.40;99.90
21744;DHT22;11034;48.556;9.342;2023-03-25T15:15:31;11.50;99.90
21744;DHT22;11034;48.556;9.342;2023-03-25T15:18:01;11.40;99.90
21744;DHT22;11034;48.556;9.342;2023-03-25T15:20:31;11.40;99.90
21744;DHT22;11034;48.556;9.342;2023-03-25T15:23:38;11.30;99.90
21744;DHT22;11034;48.556;9.342;2023-03-25T15:26:12;11.20;99.90
21744;DHT22;11034;48.556;9.342;2023-03-25T15:28:57;11.10;99.90
21744;DHT22;11034;48.556;9.342;2023-03-25T15:31:39;11.00;99.90
21744;DHT22;11034;48.556;9.342;2023-03-25T15:34:33;10.90;99.90
21744;DHT22;11034;48.556;9.342;2023-03-25T15:37:44;10.80;99.90
21744;DHT22;11034;48.556;9.342;2023-03-25T15:40:23;10.90;99.90
21744;DHT22;11034;48.556;9.342;2023-03-25T15:43:18;11.00;99.90
21744;DHT22;11034;48.556;9.342;2023-03-25T15:46:22;10.90;99.90
21744;DHT22;11034;48.556;9.342;2023-03-25T15:49:10;10.70;99.90
21744;DHT22;11034;48.556;9.342;2023-03-25T15:52:02;10.60;99.90
21744;DHT22;11034;48.556;9.342;2023-03-25T15:54:38;10.40;99.90
21744;DHT22;11034;48.556;9.342;2023-03-25T15:57:17;10.40;99.90
21744;DHT22;11034;48.556;9.342;2023-03-25T15:59:54;10.30;99.90
21744;DHT22;11034;48.556;9.342;2023-03-25T16:02:29;10.30;99.90
21744;DHT22;11034;48.556;9.342;2023-03-25T16:04:58;10.20;99.90
21744;DHT22;11034;48.556;9.342;2023-03-25T16:07:28;10.10;99.90
21744;DHT22;11034;48.556;9.342;2023-03-25T16:10:07;10.10;99.90
21744;DHT22;11034;48.556;9.342;2023-03-25T16:12:42;10.00;99.90
21744;DHT22;11034;48.556;9.342;2023-03-25T16:15:13;9.90;99.90
21744;DHT22;11034;48.556;9.342;2023-03-25T16:17:43;9.90;99.90
21744;DHT22;11034;48.556;9.342;2023-03-25T16:20:14;9.80;99.90
21744;DHT22;11034;48.556;9.342;2023-03-25T16:22:48;9.80;99.90
21744;DHT22;11034;48.556;9.342;2023-03-25T16:25:20;9.80;99.90
21744;DHT22;11034;48.556;9.342;2023-03-25T16:27:51;9.70;99.90
21744;DHT22;11034;48.556;9.342;2023-03-25T16:30:23;9.60;99.90
21744;DHT22;11034;48.556;9.342;2023-03-25T16:32:51;9.50;99.90
21744;DHT22;11034;48.556;9.342;2023-03-25T16:35:20;9.40;99.90
21744;DHT22;11034;48.556;9.342;2023-03-25T16:37:54;9.30;99.90
21744;DHT22;11034;48.556;9.342;2023-03-25T16:40:26;9.30;99.90
21744;DHT22;11034;48.556;9.342;2023-03-25T16:43:02;9.30;99.90
21744;DHT22;11034;48.556;9.342;2023-03-25T16:45:31;9.20;99.90
21744;DHT22;11034;48.556;9.342;2023-03-25T16:48:03;9.20;99.90
21744;DHT22;11034;48.556;9.342;2023-03-25T16:50:33;9.20;99.90
21744;DHT22;11034;48.556;9.342;2023-03-25T16:53:04;9.30;99.90
21744;DHT22;11034;48.556;9.342;2023-03-25T16:55:43;9.30;99.90
21744;DHT22;11034;48.556;9.342;2023-03-25T16:58:15;9.30;99.90
21744;DHT22;11034;48.556;9.342;2023-03-25T17:00:47;9.30;99.90
21744;DHT22;11034;48.556;9.342;2023-03-25T17:03:18;9.30;99.90
21744;DHT22;11034;48.556;9.342;2023-03-25T17:05:58;9.20;99.90
21744;DHT22;11034;48.556;9.342;2023-03-25T17:08:29;9.20;99.90
21744;DHT22;11034;48.556;9.342;2023-03-25T17:10:58;9.20;99.90
21744;DHT22;11034;48.556;9.342;2023-03-25T17:13:30;9.10;99.90
21744;DHT22;11034;48.556;9.342;2023-03-25T17:15:59;9.10;99.90
21744;DHT22;11034;48.556;9.342;2023-03-25T17:18:29;9.10;99.90
21744;DHT22;11034;48.556;9.342;2023-03-25T17:20:59;9.10;99.90
21744;DHT22;11034;48.556;9.342;2023-03-25T17:23:34;9.00;99.90
21744;DHT22;11034;48.556;9.342;2023-03-25T17:26:06;9.00;99.90
21744;DHT22;11034;48.556;9.342;2023-03-25T17:28:36;9.00;99.90
21744;DHT22;11034;48.556;9.342;2023-03-25T17:31:23;9.00;99.90
21744;DHT22;11034;48.556;9.342;2023-03-25T17:34:09;9.00;99.90
21744;DHT22;11034;48.556;9.342;2023-03-25T17:36:46;8.90;99.90
21744;DHT22;11034;48.556;9.342;2023-03-25T17:39:18;8.90;99.90
21744;DHT22;11034;48.556;9.342;2023-03-25T17:41:55;8.90;99.90
21744;DHT22;11034;48.556;9.342;2023-03-25T17:44:30;8.90;99.90
21744;DHT22;11034;48.556;9.342;2023-03-25T17:46:59;8.90;99.90
21744;DHT22;11034;48.556;9.342;2023-03-25T17:49:27;8.90;99.90
21744;DHT22;11034;48.556;9.342;2023-03-25T17:51:55;8.90;99.90
21744;DHT22;11034;48.556;9.342;2023-03-25T17:54:26;8.90;99.90
21744;DHT22;11034;48.556;9.342;2023-03-25T17:56:54;8.90;99.90
21744;DHT22;11034;48.556;9.342;2023-03-25T17:59:23;8.90;99.90
21744;DHT22;11034;48.556;9.342;2023-03-25T18:01:52;8.90;99.90
21744;DHT22;11034;48.556;9.342;2023-03-25T18:04:20;9.00;99.90
21744;DHT22;11034;48.556;9.342;2023-03-25T18:06:48;9.00;99.90
21744;DHT22;11034;48.556;9.342;2023-03-25T18:09:19;9.00;99.90
21744;DHT22;11034;48.556;9.342;2023-03-25T18:11:51;9.10;99.90
21744;DHT22;11034;48.556;9.342;2023-03-25T18:14:19;9.20;99.90
21744;DHT22;11034;48.556;9.342;2023-03-25T18:16:48;9.20;99.90
21744;DHT22;11034;48.556;9.342;2023-03-25T18:19:18;9.20;99.90
21744;DHT22;11034;48.556;9.342;2023-03-25T18:21:46;9.30;99.90
21744;DHT22;11034;48.556;9.342;2023-03-25T18:24:14;9.40;99.90
21744;DHT22;11034;48.556;9.342;2023-03-25T18:26:43;9.40;99.90
21744;DHT22;11034;48.556;9.342;2023-03-25T18:29:17;9.30;99.90
21744;DHT22;11034;48.556;9.342;2023-03-25T18:31:45;9.40;99.90
21744;DHT22;11034;48.556;9.342;2023-03-25T18:34:14;9.30;99.90
21744;DHT22;11034;48.556;9.342;2023-03-25T18:36:43;9.30;99.90
21744;DHT22;11034;48.556;9.342;2023-03-25T18:39:13;9.20;99.90
21744;DHT22;11034;48.556;9.342;2023-03-25T18:41:42;9.20;99.90
21744;DHT22;11034;48.556;9.342;2023-03-25T18:44:11;9.10;99.90
21744;DHT22;11034;48.556;9.342;2023-03-25T18:46:41;9.00;99.90
21744;DHT22;11034;48.556;9.342;2023-03-25T18:49:11;9.00;99.90
21744;DHT22;11034;48.556;9.342;2023-03-25T18:51:40;8.90;99.90
21744;DHT22;11034;48.556;9.342;2023-03-25T18:54:08;8.90;99.90
21744;DHT22;11034;48.556;9.342;2023-03-25T18:56:36;8.80;99.90
21744;DHT22;11034;48.556;9.342;2023-03-25T18:59:07;8.90;99.90
21744;DHT22;11034;48.556;9.342;2023-03-25T19:01:35;8.90;99.90
21744;DHT22;11034;48.556;9.342;2023-03-25T19:04:05;8.80;99.90
21744;DHT22;11034;48.556;9.342;2023-03-25T19:06:33;8.70;99.90
21744;DHT22;11034;48.556;9.342;2023-03-25T19:09:03;8.70;99.90
21744;DHT22;11034;48.556;9.342;2023-03-25T19:11:31;8.50;99.90
21744;DHT22;11034;48.556;9.342;2023-03-25T19:13:59;8.40;99.90
21744;DHT22;11034;48.556;9.342;2023-03-25T19:16:27;8.30;99.90
21744;DHT22;11034;48.556;9.342;2023-03-25T19:18:55;8.20;99.90
21744;DHT22;11034;48.556;9.342;2023-03-25T19:21:24;8.10;99.90
21744;DHT22;11034;48.556;9.342;2023-03-25T19:23:52;8.20;99.90
21744;DHT22;11034;48.556;9.342;2023-03-25T19:26:20;8.10;99.90
21744;DHT22;11034;48.556;9.342;2023-03-25T19:28:49;8.10;99.90
21744;DHT22;11034;48.556;9.342;2023-03-25T19:31:17;8.00;99.90
21744;DHT22;11034;48.556;9.342;2023-03-25T19:33:45;8.00;99.90
21744;DHT22;11034;48.556;9.342;2023-03-25T19:36:14;8.00;99.90
21744;DHT22;11034;48.556;9.342;2023-03-25T19:38:43;8.00;99.90
21744;DHT22;11034;48.556;9.342;2023-03-25T19:41:13;8.00;99.90
21744;DHT22;11034;48.556;9.342;2023-03-25T19:43:41;7.90;99.90
21744;DHT22;11034;48.556;9.342;2023-03-25T19:46:10;7.90;99.90
21744;DHT22;11034;48.556;9.342;2023-03-25T19:48:38;7.90;99.90
21744;DHT22;11034;48.556;9.342;2023-03-25T19:51:06;7.90;99.90
21744;DHT22;11034;48.556;9.342;2023-03-25T19:53:34;7.90;99.90
21744;DHT22;11034;48.556;9.342;2023-03-25T19:56:04;7.90;99.90
21744;DHT22;11034;48.556;9.342;2023-03-25T19:58:32;8.00;99.90
21744;DHT22;11034;48.556;9.342;2023-03-25T20:01:01;8.00;99.90
21744;DHT22;11034;48.556;9.342;2023-03-25T20:03:29;8.00;99.90
21744;DHT22;11034;48.556;9.342;2023-03-25T20:05:59;8.00;99.90
21744;DHT22;11034;48.556;9.342;2023-03-25T20:08:28;8.10;99.90
21744;DHT22;11034;48.556;9.342;2023-03-25T20:10:57;8.10;99.90
21744;DHT22;11034;48.556;9.342;2023-03-25T20:13:26;8.10;99.90
21744;DHT22;11034;48.556;9.342;2023-03-25T20:15:55;8.10;99.90
21744;DHT22;11034;48.556;9.342;2023-03-25T20:18:23;8.10;99.90
21744;DHT22;11034;48.556;9.342;2023-03-25T20:20:51;8.10;99.90
21744;DHT22;11034;48.556;9.342;2023-03-25T20:23:19;8.00;99.90
21744;DHT22;11034;48.556;9.342;2023-03-25T20:25:48;8.10;99.90
21744;DHT22;11034;48.556;9.342;2023-03-25T20:28:17;8.00;99.90
21744;DHT22;11034;48.556;9.342;2023-03-25T20:30:46;7.60;99.90
21744;DHT22;11034;48.556;9.342;2023-03-25T20:33:14;7.30;99.90
21744;DHT22;11034;48.556;9.342;2023-03-25T20:35:42;7.10;99.90
21744;DHT22;11034;48.556;9.342;2023-03-25T20:38:11;6.90;99.90
21744;DHT22;11034;48.556;9.342;2023-03-25T20:40:40;6.80;99.90
21744;DHT22;11034;48.556;9.342;2023-03-25T20:43:11;6.70;99.90
21744;DHT22;11034;48.556;9.342;2023-03-25T20:45:40;6.70;99.90
21744;DHT22;11034;48.556;9.342;2023-03-25T20:48:10;6.60;99.90
21744;DHT22;11034;48.556;9.342;2023-03-25T20:50:38;6.50;99.90
21744;DHT22;11034;48.556;9.342;2023-03-25T20:53:06;6.50;99.90
21744;DHT22;11034;48.556;9.342;2023-03-25T20:55:34;6.50;99.90
21744;DHT22;11034;48.556;9.342;2023-03-25T20:58:03;6.40;99.90
